createdAt,value
2023-05-21T00:00:32.463Z,16.73
2023-05-21T00:02:59.171Z,16.70
2023-05-21T00:05:26.096Z,16.67
2023-05-21T00:07:54.871Z,16.68
2023-05-21T00:10:21.574Z,16.65
2023-05-21T00:12:48.120Z,16.65
2023-05-21T00:15:14.684Z,16.62
2023-05-21T00:17:41.770Z,16.61
2023-05-21T00:20:08.983Z,16.60
2023-05-21T00:22:36.283Z,16.56
2023-05-21T00:25:03.667Z,16.58
2023-05-21T00:27:30.267Z,16.55
2023-05-21T00:29:56.915Z,16.54
2023-05-21T00:32:23.610Z,16.51
2023-05-21T00:34:50.300Z,16.51
2023-05-21T00:37:16.927Z,16.51
2023-05-21T00:39:43.509Z,16.51
2023-05-21T00:42:10.435Z,16.49
2023-05-21T00:44:36.985Z,16.43
2023-05-21T00:47:06.499Z,16.44
2023-05-21T00:49:33.153Z,16.45
2023-05-21T00:52:01.590Z,16.44
2023-05-21T00:54:29.293Z,16.46
2023-05-21T00:56:56.243Z,16.46
2023-05-21T00:59:24.020Z,16.43
2023-05-21T01:01:55.989Z,16.43
2023-05-21T01:04:23.574Z,16.42
2023-05-21T01:06:50.168Z,16.41
2023-05-21T01:09:17.298Z,16.39
2023-05-21T01:11:49.406Z,16.36
2023-05-21T01:14:18.863Z,16.36
2023-05-21T01:16:48.263Z,16.33
2023-05-21T01:19:21.822Z,16.29
2023-05-21T01:22:04.235Z,16.32
2023-05-21T01:24:31.342Z,16.30
2023-05-21T01:26:59.312Z,16.25
2023-05-21T01:29:26.254Z,16.26
2023-05-21T01:32:16.151Z,16.23
2023-05-21T01:35:04.443Z,16.22
2023-05-21T01:37:37.494Z,16.20
2023-05-21T01:40:36.106Z,16.17
2023-05-21T01:43:07.022Z,16.14
2023-05-21T01:45:38.661Z,16.15
2023-05-21T01:48:07.985Z,16.14
2023-05-21T01:50:37.301Z,16.13
2023-05-21T01:53:05.917Z,16.12
2023-05-21T01:55:32.981Z,16.12
2023-05-21T01:58:02.312Z,16.08
2023-05-21T02:00:29.437Z,16.07
2023-05-21T02:02:56.395Z,16.08
2023-05-21T02:05:25.570Z,16.05
2023-05-21T02:07:52.713Z,16.06
2023-05-21T02:10:19.345Z,16.03
2023-05-21T02:12:46.177Z,16.02
2023-05-21T02:15:14.276Z,16.01
2023-05-21T02:17:42.418Z,16.00
2023-05-21T02:20:12.072Z,15.96
2023-05-21T02:22:39.780Z,15.95
2023-05-21T02:25:08.139Z,15.94
2023-05-21T02:27:38.755Z,15.93
2023-05-21T02:30:07.878Z,15.89
2023-05-21T02:32:35.072Z,15.90
2023-05-21T02:35:03.735Z,15.89
2023-05-21T02:37:34.307Z,15.88
2023-05-21T02:40:02.546Z,15.83
2023-05-21T02:42:29.142Z,15.82
2023-05-21T02:44:56.476Z,15.79
2023-05-21T02:47:23.749Z,15.78
2023-05-21T02:49:52.221Z,15.75
2023-05-21T02:52:20.009Z,15.74
2023-05-21T02:54:47.333Z,15.73
2023-05-21T02:57:14.267Z,15.71
2023-05-21T02:59:41.005Z,15.70
2023-05-21T03:02:07.685Z,15.73
2023-05-21T03:04:39.182Z,15.69
2023-05-21T03:07:06.328Z,15.70
2023-05-21T03:09:32.864Z,15.71
2023-05-21T03:11:59.414Z,15.72
2023-05-21T03:14:25.966Z,15.72
2023-05-21T03:16:52.702Z,15.73
2023-05-21T03:19:20.842Z,15.71
2023-05-21T03:21:49.073Z,15.70
2023-05-21T03:24:16.008Z,15.69
2023-05-21T03:26:42.636Z,15.68
2023-05-21T03:29:09.271Z,15.66
2023-05-21T03:31:35.910Z,15.66
2023-05-21T03:34:02.511Z,15.64
2023-05-21T03:36:29.126Z,15.62
2023-05-21T03:38:55.716Z,15.60
2023-05-21T03:41:22.354Z,15.59
2023-05-21T03:43:48.976Z,15.57
2023-05-21T03:46:15.642Z,15.55
2023-05-21T03:48:42.245Z,15.59
2023-05-21T03:51:09.570Z,15.59
2023-05-21T03:53:37.094Z,15.59
2023-05-21T03:56:03.909Z,15.59
2023-05-21T03:58:30.601Z,15.60
2023-05-21T04:00:57.214Z,15.62
2023-05-21T04:03:23.889Z,15.61
2023-05-21T04:05:50.832Z,15.59
2023-05-21T04:08:17.436Z,15.56
2023-05-21T04:10:44.141Z,15.55
2023-05-21T04:13:10.766Z,15.53
2023-05-21T04:15:38.729Z,15.54
2023-05-21T04:18:07.154Z,15.51
2023-05-21T04:20:34.020Z,15.51
2023-05-21T04:23:01.155Z,15.52
2023-05-21T04:25:27.764Z,15.51
2023-05-21T04:27:54.747Z,15.51
2023-05-21T04:30:22.025Z,15.52
2023-05-21T04:32:48.819Z,15.52
2023-05-21T04:35:15.536Z,15.53
2023-05-21T04:37:42.151Z,15.52
2023-05-21T04:40:09.750Z,15.52
2023-05-21T04:42:36.745Z,15.54
2023-05-21T04:45:03.475Z,15.50
2023-05-21T04:47:30.421Z,15.54
2023-05-21T04:49:57.109Z,15.52
2023-05-21T04:52:25.027Z,15.51
2023-05-21T04:54:51.849Z,15.51
2023-05-21T04:57:18.450Z,15.52
2023-05-21T04:59:45.055Z,15.53
2023-05-21T05:02:11.637Z,15.55
2023-05-21T05:04:38.280Z,15.59
2023-05-21T05:07:05.032Z,15.60
2023-05-21T05:09:31.701Z,15.64
2023-05-21T05:11:58.277Z,15.63
2023-05-21T05:14:24.870Z,15.66
2023-05-21T05:16:51.558Z,15.66
2023-05-21T05:19:18.271Z,15.67
2023-05-21T05:21:44.969Z,15.70
2023-05-21T05:24:11.640Z,15.74
2023-05-21T05:26:38.252Z,15.77
2023-05-21T05:29:04.912Z,15.77
2023-05-21T05:31:31.609Z,15.78
2023-05-21T05:33:58.398Z,15.77
2023-05-21T05:36:24.976Z,15.79
2023-05-21T05:38:52.164Z,15.80
2023-05-21T05:41:18.704Z,15.78
2023-05-21T05:43:45.389Z,15.81
2023-05-21T05:46:11.998Z,15.84
2023-05-21T05:48:38.615Z,15.88
2023-05-21T05:51:05.687Z,15.94
2023-05-21T05:53:32.472Z,15.94
2023-05-21T05:55:59.791Z,15.95
2023-05-21T05:58:26.551Z,15.91
2023-05-21T06:00:53.185Z,15.88
2023-05-21T06:03:19.882Z,15.87
2023-05-21T06:05:46.689Z,15.93
2023-05-21T06:08:13.322Z,15.91
2023-05-21T06:10:39.895Z,15.96
2023-05-21T06:13:06.704Z,16.04
2023-05-21T06:15:33.567Z,16.15
2023-05-21T06:18:00.315Z,16.22
2023-05-21T06:20:27.764Z,16.34
2023-05-21T06:22:54.320Z,16.48
2023-05-21T06:25:20.862Z,16.67
2023-05-21T06:27:47.514Z,16.94
2023-05-21T06:30:14.136Z,17.16
2023-05-21T06:32:40.865Z,17.29
2023-05-21T06:35:07.917Z,17.31
2023-05-21T06:37:34.519Z,17.35
2023-05-21T06:40:01.473Z,17.35
2023-05-21T06:42:28.026Z,17.38
2023-05-21T06:44:54.630Z,17.42
2023-05-21T06:47:21.595Z,17.45
2023-05-21T06:49:48.197Z,17.49
2023-05-21T06:52:14.730Z,17.58
2023-05-21T06:54:42.422Z,17.60
2023-05-21T06:57:09.036Z,17.64
2023-05-21T06:59:35.616Z,17.70
2023-05-21T07:02:04.489Z,17.74
2023-05-21T07:04:31.516Z,17.70
2023-05-21T07:06:58.140Z,17.73
2023-05-21T07:09:24.751Z,17.71
2023-05-21T07:11:52.923Z,17.73
2023-05-21T07:14:19.665Z,17.77
2023-05-21T07:16:46.318Z,17.85
2023-05-21T07:19:20.382Z,17.92
2023-05-21T07:21:47.147Z,17.95
2023-05-21T07:24:13.684Z,18.04
2023-05-21T07:26:40.527Z,18.11
2023-05-21T07:29:07.096Z,18.17
2023-05-21T07:31:33.774Z,18.26
2023-05-21T07:34:00.449Z,18.46
2023-05-21T07:36:27.184Z,18.58
2023-05-21T07:38:53.820Z,18.67
2023-05-21T07:41:20.412Z,18.81
2023-05-21T07:43:47.001Z,18.87
2023-05-21T07:46:13.562Z,18.98
2023-05-21T07:48:40.176Z,19.12
2023-05-21T07:51:06.735Z,19.17
2023-05-21T07:53:33.502Z,19.27
2023-05-21T07:56:00.395Z,19.52
2023-05-21T07:58:26.973Z,19.66
2023-05-21T08:00:53.862Z,19.80
2023-05-21T08:03:20.718Z,19.89
2023-05-21T08:05:50.897Z,20.03
2023-05-21T08:08:19.268Z,20.22
2023-05-21T08:10:47.815Z,20.35
2023-05-21T08:13:16.561Z,20.49
2023-05-21T08:15:43.174Z,20.65
2023-05-21T08:18:10.001Z,20.74
2023-05-21T08:20:36.914Z,20.71
2023-05-21T08:23:04.073Z,20.75
2023-05-21T08:25:30.806Z,20.85
2023-05-21T08:27:57.481Z,20.93
2023-05-21T08:30:24.507Z,21.06
2023-05-21T08:32:51.102Z,21.24
2023-05-21T08:35:17.733Z,21.28
2023-05-21T08:37:44.325Z,21.07
2023-05-21T08:40:13.635Z,21.02
2023-05-21T08:42:45.461Z,20.88
2023-05-21T08:45:14.156Z,20.80
2023-05-21T08:47:44.958Z,20.91
2023-05-21T08:50:13.741Z,20.98
2023-05-21T08:52:41.406Z,21.14
2023-05-21T08:55:09.184Z,21.25
2023-05-21T08:57:36.395Z,21.51
2023-05-21T09:00:06.322Z,21.80
2023-05-21T09:02:38.498Z,22.04
2023-05-21T09:05:05.609Z,22.28
2023-05-21T09:08:01.022Z,22.51
2023-05-21T09:10:36.407Z,22.77
2023-05-21T09:13:04.287Z,22.96
2023-05-21T09:15:31.142Z,23.07
2023-05-21T09:17:57.811Z,23.16
2023-05-21T09:20:26.558Z,23.23
2023-05-21T09:22:53.708Z,23.09
2023-05-21T09:25:25.391Z,23.12
2023-05-21T09:27:52.083Z,23.29
2023-05-21T09:30:20.851Z,23.36
2023-05-21T09:32:58.371Z,23.57
2023-05-21T09:35:25.521Z,23.63
2023-05-21T09:37:53.814Z,23.68
2023-05-21T09:40:22.189Z,23.75
2023-05-21T09:42:50.704Z,24.00
2023-05-21T09:45:27.872Z,24.03
2023-05-21T09:47:56.274Z,24.13
2023-05-21T09:50:31.369Z,24.08
2023-05-21T09:52:58.513Z,24.25
2023-05-21T09:55:26.971Z,24.43
2023-05-21T09:57:53.730Z,24.58
2023-05-21T10:00:28.412Z,24.81
2023-05-21T10:03:01.786Z,24.83
2023-05-21T10:05:30.444Z,24.86
2023-05-21T10:08:04.230Z,24.87
2023-05-21T10:10:32.441Z,24.94
2023-05-21T10:13:04.028Z,25.00
2023-05-21T10:15:35.296Z,25.13
2023-05-21T10:18:03.876Z,25.10
2023-05-21T10:20:31.790Z,25.07
2023-05-21T10:22:59.635Z,25.25
2023-05-21T10:25:26.741Z,25.38
2023-05-21T10:27:56.116Z,25.42
2023-05-21T10:30:24.153Z,25.41
2023-05-21T10:32:51.501Z,25.41
2023-05-21T10:35:18.819Z,25.61
2023-05-21T10:37:45.739Z,25.52
2023-05-21T10:40:13.584Z,25.30
2023-05-21T10:43:17.018Z,25.31
2023-05-21T10:46:48.374Z,24.97
2023-05-21T10:49:45.886Z,24.88
2023-05-21T10:52:39.283Z,24.86
2023-05-21T10:55:38.532Z,24.87
2023-05-21T10:58:19.026Z,24.72
2023-05-21T11:00:46.282Z,24.85
2023-05-21T11:03:15.030Z,24.69
2023-05-21T11:06:02.667Z,24.44
2023-05-21T11:08:36.257Z,24.28
2023-05-21T11:11:04.048Z,24.13
2023-05-21T11:13:49.139Z,24.15
2023-05-21T11:16:17.507Z,24.21
2023-05-21T11:18:47.018Z,24.13
2023-05-21T11:21:15.882Z,24.15
2023-05-21T11:23:56.652Z,24.26
2023-05-21T11:26:27.767Z,24.47
2023-05-21T11:29:03.309Z,24.73
2023-05-21T11:31:38.056Z,24.73
2023-05-21T11:34:28.224Z,24.87
2023-05-21T11:37:16.750Z,24.62
2023-05-21T11:39:45.272Z,24.58
2023-05-21T11:42:12.085Z,24.57
2023-05-21T11:44:42.213Z,24.55
2023-05-21T11:47:11.426Z,24.49
2023-05-21T11:49:39.186Z,24.59
2023-05-21T11:52:07.859Z,24.53
2023-05-21T11:54:40.472Z,24.74
2023-05-21T11:57:08.369Z,24.72
2023-05-21T11:59:36.437Z,24.77
2023-05-21T12:02:05.171Z,24.81
2023-05-21T12:04:36.411Z,24.94
2023-05-21T12:07:08.303Z,25.05
2023-05-21T12:09:42.275Z,25.10
2023-05-21T12:12:10.071Z,25.19
2023-05-21T12:14:37.568Z,25.13
2023-05-21T12:17:05.826Z,25.10
2023-05-21T12:19:39.585Z,24.93
2023-05-21T12:22:07.454Z,24.97
2023-05-21T12:24:35.023Z,25.02
2023-05-21T12:27:09.636Z,24.99
2023-05-21T12:29:40.560Z,24.92
2023-05-21T12:32:09.874Z,24.81
2023-05-21T12:34:46.665Z,24.78
2023-05-21T12:37:21.947Z,24.74
2023-05-21T12:39:54.571Z,24.66
2023-05-21T12:42:34.779Z,24.51
2023-05-21T12:45:11.277Z,24.47
2023-05-21T12:47:38.410Z,24.43
2023-05-21T12:50:13.744Z,24.39
2023-05-21T12:52:42.966Z,24.45
2023-05-21T12:55:11.728Z,24.51
2023-05-21T12:57:39.027Z,24.41
2023-05-21T13:00:07.885Z,24.36
2023-05-21T13:02:41.425Z,24.40
2023-05-21T13:05:10.980Z,24.35
2023-05-21T13:07:39.578Z,24.27
2023-05-21T13:10:07.407Z,24.31
2023-05-21T13:12:34.678Z,24.35
2023-05-21T13:15:03.154Z,24.33
2023-05-21T13:17:30.346Z,24.31
2023-05-21T13:20:12.062Z,24.32
2023-05-21T13:22:47.206Z,24.40
2023-05-21T13:25:16.242Z,24.34
2023-05-21T13:27:43.965Z,24.28
2023-05-21T13:30:11.803Z,24.26
2023-05-21T13:32:40.314Z,24.31
2023-05-21T13:35:07.680Z,24.33
2023-05-21T13:37:38.105Z,24.31
2023-05-21T13:40:06.336Z,24.34
2023-05-21T13:42:33.674Z,24.36
2023-05-21T13:45:00.333Z,24.36
2023-05-21T13:47:27.008Z,24.31
2023-05-21T13:49:53.609Z,24.29
2023-05-21T13:52:21.330Z,24.29
2023-05-21T13:54:48.014Z,24.30
2023-05-21T13:57:15.490Z,24.34
2023-05-21T13:59:42.333Z,24.43
2023-05-21T14:02:11.129Z,24.41
2023-05-21T14:04:39.493Z,24.36
2023-05-21T14:07:07.002Z,24.36
2023-05-21T14:09:34.095Z,24.31
2023-05-21T14:12:01.431Z,24.34
2023-05-21T14:14:28.063Z,24.32
2023-05-21T14:16:55.099Z,24.28
2023-05-21T14:19:21.863Z,24.30
2023-05-21T14:21:51.488Z,24.32
2023-05-21T14:24:18.217Z,24.38
2023-05-21T14:26:44.926Z,24.41
2023-05-21T14:29:11.536Z,24.38
2023-05-21T14:31:39.326Z,24.39
2023-05-21T14:34:08.630Z,24.28
2023-05-21T14:36:36.352Z,24.27
2023-05-21T14:39:03.653Z,24.25
2023-05-21T14:41:30.325Z,24.24
2023-05-21T14:43:56.933Z,24.20
2023-05-21T14:46:23.671Z,24.23
2023-05-21T14:48:50.338Z,24.22
2023-05-21T14:51:16.951Z,24.21
2023-05-21T14:53:43.556Z,24.18
2023-05-21T14:56:10.253Z,24.19
2023-05-21T14:58:36.830Z,24.15
2023-05-21T15:01:04.220Z,24.14
2023-05-21T15:03:31.122Z,24.07
2023-05-21T15:05:58.580Z,24.12
2023-05-21T15:08:25.437Z,24.12
2023-05-21T15:10:52.480Z,24.08
2023-05-21T15:13:19.148Z,24.07
2023-05-21T15:15:46.067Z,23.98
2023-05-21T15:18:13.106Z,23.95
2023-05-21T15:20:39.787Z,23.91
2023-05-21T15:23:15.894Z,23.89
2023-05-21T15:25:43.114Z,23.83
2023-05-21T15:28:09.868Z,23.68
2023-05-21T15:30:36.447Z,23.74
2023-05-21T15:33:03.083Z,23.69
2023-05-21T15:35:29.783Z,23.64
2023-05-21T15:37:56.444Z,23.57
2023-05-21T15:40:24.418Z,23.53
2023-05-21T15:42:52.920Z,23.50
2023-05-21T15:45:19.569Z,23.41
2023-05-21T15:47:46.233Z,23.41
2023-05-21T15:50:12.837Z,23.35
2023-05-21T15:52:39.483Z,23.38
2023-05-21T15:55:06.204Z,23.32
2023-05-21T15:57:32.821Z,23.30
2023-05-21T15:59:59.459Z,23.29
2023-05-21T16:02:26.213Z,23.29
2023-05-21T16:04:52.888Z,23.28
2023-05-21T16:07:19.498Z,23.20
2023-05-21T16:09:46.123Z,23.13
2023-05-21T16:12:13.385Z,23.13
2023-05-21T16:14:39.987Z,23.11
2023-05-21T16:17:06.704Z,23.15
2023-05-21T16:19:33.556Z,23.13
2023-05-21T16:22:01.840Z,23.14
2023-05-21T16:24:28.368Z,23.12
2023-05-21T16:26:54.937Z,23.08
2023-05-21T16:29:22.182Z,23.05
2023-05-21T16:31:48.997Z,23.08
2023-05-21T16:34:15.806Z,23.01
2023-05-21T16:36:42.557Z,22.97
2023-05-21T16:39:09.217Z,22.95
2023-05-21T16:41:35.934Z,22.94
2023-05-21T16:44:02.848Z,22.86
2023-05-21T16:46:29.451Z,22.86
2023-05-21T16:48:56.028Z,22.84
2023-05-21T16:51:22.611Z,22.86
2023-05-21T16:53:49.172Z,22.90
2023-05-21T16:56:15.825Z,22.88
2023-05-21T16:58:42.442Z,22.89
2023-05-21T17:01:08.991Z,22.81
2023-05-21T17:03:36.101Z,22.71
2023-05-21T17:06:03.213Z,22.68
2023-05-21T17:08:30.992Z,22.60
2023-05-21T17:10:58.282Z,22.56
2023-05-21T17:13:24.931Z,22.51
2023-05-21T17:15:51.614Z,22.47
2023-05-21T17:18:18.222Z,22.44
2023-05-21T17:20:44.915Z,22.35
2023-05-21T17:23:11.933Z,22.34
2023-05-21T17:25:39.600Z,22.33
2023-05-21T17:28:06.524Z,22.26
2023-05-21T17:30:33.359Z,22.27
2023-05-21T17:33:02.151Z,22.19
2023-05-21T17:35:29.310Z,22.13
2023-05-21T17:37:55.889Z,22.06
2023-05-21T17:40:24.469Z,22.03
2023-05-21T17:42:52.792Z,22.00
2023-05-21T17:45:19.686Z,21.94
2023-05-21T17:47:46.543Z,21.89
2023-05-21T17:50:13.207Z,21.88
2023-05-21T17:52:39.978Z,21.84
2023-05-21T17:55:07.776Z,21.79
2023-05-21T17:57:35.801Z,21.78
2023-05-21T18:00:05.114Z,21.75
2023-05-21T18:02:31.849Z,21.67
2023-05-21T18:04:58.594Z,21.62
2023-05-21T18:07:25.521Z,21.53
2023-05-21T18:09:52.104Z,21.46
2023-05-21T18:12:18.724Z,21.38
2023-05-21T18:14:45.770Z,21.34
2023-05-21T18:17:12.435Z,21.30
2023-05-21T18:19:39.022Z,21.24
2023-05-21T18:22:05.832Z,21.19
2023-05-21T18:24:32.414Z,21.16
2023-05-21T18:26:59.059Z,21.15
2023-05-21T18:29:25.663Z,21.10
2023-05-21T18:31:52.673Z,21.07
2023-05-21T18:34:19.352Z,21.07
2023-05-21T18:36:46.612Z,21.04
2023-05-21T18:39:13.171Z,21.01
2023-05-21T18:41:39.956Z,20.96
2023-05-21T18:44:06.556Z,20.93
2023-05-21T18:46:33.296Z,20.91
2023-05-21T18:49:00.527Z,20.88
2023-05-21T18:51:27.282Z,20.82
2023-05-21T18:53:53.882Z,20.76
2023-05-21T18:56:21.747Z,20.71
2023-05-21T18:58:48.591Z,20.69
2023-05-21T19:01:16.304Z,20.66
2023-05-21T19:03:43.232Z,20.61
2023-05-21T19:06:09.972Z,20.57
2023-05-21T19:08:36.588Z,20.53
2023-05-21T19:11:03.831Z,20.46
2023-05-21T19:13:30.678Z,20.40
2023-05-21T19:15:58.698Z,20.36
2023-05-21T19:18:31.542Z,20.35
2023-05-21T19:21:00.210Z,20.23
2023-05-21T19:23:26.965Z,20.17
2023-05-21T19:25:53.642Z,20.10
2023-05-21T19:28:20.391Z,20.05
2023-05-21T19:30:46.943Z,19.98
2023-05-21T19:33:13.672Z,19.98
2023-05-21T19:35:41.885Z,19.95
2023-05-21T19:38:10.804Z,19.93
2023-05-21T19:40:37.815Z,19.91
2023-05-21T19:43:04.834Z,19.84
2023-05-21T19:45:31.441Z,19.77
2023-05-21T19:47:59.443Z,19.69
2023-05-21T19:50:28.404Z,19.65
2023-05-21T19:52:57.036Z,19.65
2023-05-21T19:55:24.511Z,19.63
2023-05-21T19:57:51.279Z,19.57
2023-05-21T20:00:19.238Z,19.51
2023-05-21T20:02:46.976Z,19.41
2023-05-21T20:05:13.851Z,19.37
2023-05-21T20:07:41.252Z,19.32
2023-05-21T20:10:08.677Z,19.33
2023-05-21T20:12:35.683Z,19.28
2023-05-21T20:15:03.380Z,19.20
2023-05-21T20:17:30.572Z,19.19
2023-05-21T20:19:58.966Z,19.15
2023-05-21T20:22:25.691Z,19.13
2023-05-21T20:24:52.309Z,19.07
2023-05-21T20:27:19.343Z,19.05
2023-05-21T20:29:46.265Z,19.03
2023-05-21T20:32:13.237Z,18.96
2023-05-21T20:34:54.331Z,18.92
2023-05-21T20:37:26.188Z,18.87
2023-05-21T20:39:57.764Z,18.79
2023-05-21T20:42:28.373Z,18.71
2023-05-21T20:44:55.484Z,18.67
2023-05-21T20:47:23.312Z,18.63
2023-05-21T20:49:53.638Z,18.58
2023-05-21T20:52:20.564Z,18.51
2023-05-21T20:54:48.777Z,18.46
2023-05-21T20:57:15.488Z,18.45
2023-05-21T20:59:42.217Z,18.46
2023-05-21T21:02:12.549Z,18.45
2023-05-21T21:04:39.753Z,18.41
2023-05-21T21:07:07.991Z,18.38
2023-05-21T21:09:34.664Z,18.34
2023-05-21T21:12:06.264Z,18.34
2023-05-21T21:14:38.160Z,18.33
2023-05-21T21:17:04.808Z,18.30
2023-05-21T21:19:31.480Z,18.29
2023-05-21T21:21:58.376Z,18.27
2023-05-21T21:24:25.007Z,18.27
2023-05-21T21:26:51.580Z,18.24
2023-05-21T21:29:18.419Z,18.21
2023-05-21T21:31:47.453Z,18.15
2023-05-21T21:34:14.288Z,18.16
2023-05-21T21:36:40.836Z,18.13
2023-05-21T21:39:07.443Z,18.11
2023-05-21T21:41:34.359Z,18.10
2023-05-21T21:44:01.128Z,18.08
2023-05-21T21:46:27.827Z,18.08
2023-05-21T21:48:54.440Z,18.07
2023-05-21T21:51:23.218Z,18.06
2023-05-21T21:53:50.514Z,18.05
2023-05-21T21:56:17.253Z,18.02
2023-05-21T21:58:43.949Z,18.02
2023-05-21T22:01:10.567Z,17.99
2023-05-21T22:03:37.215Z,17.97
2023-05-21T22:06:03.911Z,17.96
2023-05-21T22:08:30.679Z,17.92
2023-05-21T22:10:57.289Z,17.86
2023-05-21T22:13:24.570Z,17.80
2023-05-21T22:15:51.554Z,17.78
2023-05-21T22:18:28.268Z,17.76
2023-05-21T22:20:59.647Z,17.74
2023-05-21T22:23:26.242Z,17.72
2023-05-21T22:25:52.849Z,17.71
2023-05-21T22:28:22.281Z,17.69
2023-05-21T22:30:48.945Z,17.68
2023-05-21T22:33:15.889Z,17.65
2023-05-21T22:35:42.656Z,17.65
2023-05-21T22:38:09.258Z,17.63
2023-05-21T22:40:36.227Z,17.62
2023-05-21T22:43:03.027Z,17.58
2023-05-21T22:45:29.645Z,17.58
2023-05-21T22:47:56.567Z,17.54
2023-05-21T22:50:25.225Z,17.54
2023-05-21T22:52:51.903Z,17.50
2023-05-21T22:55:18.675Z,17.51
2023-05-21T22:57:45.319Z,17.49
2023-05-21T23:00:12.349Z,17.45
2023-05-21T23:02:39.229Z,17.45
2023-05-21T23:05:06.214Z,17.42
2023-05-21T23:07:32.883Z,17.46
2023-05-21T23:09:59.444Z,17.48
2023-05-21T23:12:26.009Z,17.49
2023-05-21T23:14:52.562Z,17.53
2023-05-21T23:17:19.179Z,17.58
2023-05-21T23:19:45.822Z,17.61
2023-05-21T23:22:12.407Z,17.63
2023-05-21T23:24:39.359Z,17.66
2023-05-21T23:27:05.979Z,17.65
2023-05-21T23:29:32.593Z,17.70
2023-05-21T23:32:00.906Z,17.71
2023-05-21T23:34:27.744Z,17.73
2023-05-21T23:36:54.362Z,17.75
2023-05-21T23:39:21.305Z,17.77
2023-05-21T23:41:48.787Z,17.81
2023-05-21T23:44:16.365Z,17.81
2023-05-21T23:46:43.156Z,17.74
2023-05-21T23:49:09.802Z,17.72
2023-05-21T23:51:36.397Z,17.72
2023-05-21T23:54:03.192Z,17.69
2023-05-21T23:56:30.617Z,17.66
2023-05-21T23:58:57.335Z,17.61
